sensor_id;sensor_type;location;lat;lon;timestamp;P1;durP1;ratioP1;P2;durP2;ratioP2
20476;SDS011;10397;50.948;11.092;2022-07-06T00:00:33;0.50;;;0.20;;
20476;SDS011;10397;50.948;11.092;2022-07-06T00:03:04;0.65;;;0.40;;
20476;SDS011;10397;50.948;11.092;2022-07-06T00:05:36;0.80;;;0.30;;
20476;SDS011;10397;50.948;11.092;2022-07-06T00:08:07;4.05;;;0.50;;
20476;SDS011;10397;50.948;11.092;2022-07-06T00:10:39;3.72;;;0.37;;
20476;SDS011;10397;50.948;11.092;2022-07-06T00:13:10;1.72;;;0.47;;
20476;SDS011;10397;50.948;11.092;2022-07-06T00:15:42;2.50;;;0.20;;
20476;SDS011;10397;50.948;11.092;2022-07-06T00:18:13;4.03;;;0.30;;
20476;SDS011;10397;50.948;11.092;2022-07-06T00:20:44;2.15;;;0.30;;
20476;SDS011;10397;50.948;11.092;2022-07-06T00:23:15;0.60;;;0.20;;
20476;SDS011;10397;50.948;11.092;2022-07-06T00:25:46;3.15;;;0.40;;
20476;SDS011;10397;50.948;11.092;2022-07-06T00:28:18;5.42;;;0.50;;
20476;SDS011;10397;50.948;11.092;2022-07-06T00:30:49;1.35;;;0.30;;
20476;SDS011;10397;50.948;11.092;2022-07-06T00:33:21;0.85;;;0.40;;
20476;SDS011;10397;50.948;11.092;2022-07-06T00:35:52;0.85;;;0.40;;
20476;SDS011;10397;50.948;11.092;2022-07-06T00:38:23;0.98;;;0.23;;
20476;SDS011;10397;50.948;11.092;2022-07-06T00:40:55;1.17;;;0.30;;
20476;SDS011;10397;50.948;11.092;2022-07-06T00:43:26;0.80;;;0.30;;
20476;SDS011;10397;50.948;11.092;2022-07-06T00:45:58;2.08;;;0.53;;
20476;SDS011;10397;50.948;11.092;2022-07-06T00:48:29;1.57;;;0.50;;
20476;SDS011;10397;50.948;11.092;2022-07-06T00:51:01;0.72;;;0.30;;
20476;SDS011;10397;50.948;11.092;2022-07-06T00:53:32;2.15;;;0.47;;
20476;SDS011;10397;50.948;11.092;2022-07-06T00:56:04;1.50;;;0.50;;
20476;SDS011;10397;50.948;11.092;2022-07-06T00:58:34;1.70;;;0.50;;
20476;SDS011;10397;50.948;11.092;2022-07-06T01:01:05;1.15;;;0.33;;
20476;SDS011;10397;50.948;11.092;2022-07-06T01:03:37;1.75;;;0.37;;
20476;SDS011;10397;50.948;11.092;2022-07-06T01:06:08;0.62;;;0.35;;
20476;SDS011;10397;50.948;11.092;2022-07-06T01:08:40;3.52;;;0.40;;
20476;SDS011;10397;50.948;11.092;2022-07-06T01:11:11;1.02;;;0.40;;
20476;SDS011;10397;50.948;11.092;2022-07-06T01:13:43;1.52;;;0.72;;
20476;SDS011;10397;50.948;11.092;2022-07-06T01:16:14;1.07;;;0.40;;
20476;SDS011;10397;50.948;11.092;2022-07-06T01:18:45;5.08;;;0.47;;
20476;SDS011;10397;50.948;11.092;2022-07-06T01:21:16;1.70;;;0.30;;
20476;SDS011;10397;50.948;11.092;2022-07-06T01:23:48;3.15;;;0.40;;
20476;SDS011;10397;50.948;11.092;2022-07-06T01:26:20;1.27;;;0.50;;
20476;SDS011;10397;50.948;11.092;2022-07-06T01:28:50;1.03;;;0.50;;
20476;SDS011;10397;50.948;11.092;2022-07-06T01:31:21;4.55;;;0.50;;
20476;SDS011;10397;50.948;11.092;2022-07-06T01:33:53;1.40;;;0.40;;
20476;SDS011;10397;50.948;11.092;2022-07-06T01:36:23;1.65;;;0.50;;
20476;SDS011;10397;50.948;11.092;2022-07-06T01:38:55;1.20;;;0.53;;
20476;SDS011;10397;50.948;11.092;2022-07-06T01:41:25;0.87;;;0.40;;
20476;SDS011;10397;50.948;11.092;2022-07-06T01:43:56;1.60;;;0.40;;
20476;SDS011;10397;50.948;11.092;2022-07-06T01:46:28;1.25;;;0.50;;
20476;SDS011;10397;50.948;11.092;2022-07-06T01:48:59;0.82;;;0.37;;
20476;SDS011;10397;50.948;11.092;2022-07-06T01:51:31;1.17;;;0.42;;
20476;SDS011;10397;50.948;11.092;2022-07-06T01:54:02;1.25;;;0.40;;
20476;SDS011;10397;50.948;11.092;2022-07-06T01:56:33;2.40;;;0.62;;
20476;SDS011;10397;50.948;11.092;2022-07-06T01:59:05;1.27;;;0.50;;
20476;SDS011;10397;50.948;11.092;2022-07-06T02:01:35;2.53;;;0.60;;
20476;SDS011;10397;50.948;11.092;2022-07-06T02:04:07;1.27;;;0.50;;
20476;SDS011;10397;50.948;11.092;2022-07-06T02:06:38;0.78;;;0.40;;
20476;SDS011;10397;50.948;11.092;2022-07-06T02:09:10;1.35;;;0.47;;
20476;SDS011;10397;50.948;11.092;2022-07-06T02:11:41;0.85;;;0.40;;
20476;SDS011;10397;50.948;11.092;2022-07-06T02:14:12;2.83;;;0.50;;
20476;SDS011;10397;50.948;11.092;2022-07-06T02:16:44;1.30;;;0.42;;
20476;SDS011;10397;50.948;11.092;2022-07-06T02:19:15;3.17;;;0.60;;
20476;SDS011;10397;50.948;11.092;2022-07-06T02:21:46;0.78;;;0.40;;
20476;SDS011;10397;50.948;11.092;2022-07-06T02:24:18;2.40;;;0.60;;
20476;SDS011;10397;50.948;11.092;2022-07-06T02:26:49;1.92;;;0.60;;
20476;SDS011;10397;50.948;11.092;2022-07-06T02:29:21;1.65;;;0.50;;
20476;SDS011;10397;50.948;11.092;2022-07-06T02:31:52;1.67;;;0.40;;
20476;SDS011;10397;50.948;11.092;2022-07-06T02:34:24;1.12;;;0.40;;
20476;SDS011;10397;50.948;11.092;2022-07-06T02:36:55;1.90;;;0.60;;
20476;SDS011;10397;50.948;11.092;2022-07-06T02:39:27;7.10;;;0.50;;
20476;SDS011;10397;50.948;11.092;2022-07-06T02:41:59;2.33;;;0.45;;
20476;SDS011;10397;50.948;11.092;2022-07-06T02:44:30;3.72;;;0.68;;
20476;SDS011;10397;50.948;11.092;2022-07-06T02:47:01;0.95;;;0.60;;
20476;SDS011;10397;50.948;11.092;2022-07-06T02:49:32;1.13;;;0.50;;
20476;SDS011;10397;50.948;11.092;2022-07-06T02:52:03;2.37;;;0.53;;
20476;SDS011;10397;50.948;11.092;2022-07-06T02:54:34;2.42;;;0.42;;
20476;SDS011;10397;50.948;11.092;2022-07-06T02:57:05;0.70;;;0.50;;
20476;SDS011;10397;50.948;11.092;2022-07-06T02:59:37;1.00;;;0.40;;
20476;SDS011;10397;50.948;11.092;2022-07-06T03:02:08;3.10;;;0.53;;
20476;SDS011;10397;50.948;11.092;2022-07-06T03:04:39;2.22;;;0.50;;
20476;SDS011;10397;50.948;11.092;2022-07-06T03:07:11;2.00;;;0.72;;
20476;SDS011;10397;50.948;11.092;2022-07-06T03:09:42;1.35;;;0.50;;
20476;SDS011;10397;50.948;11.092;2022-07-06T03:12:13;4.25;;;0.40;;
20476;SDS011;10397;50.948;11.092;2022-07-06T03:14:44;1.55;;;0.70;;
20476;SDS011;10397;50.948;11.092;2022-07-06T03:17:16;1.32;;;0.60;;
20476;SDS011;10397;50.948;11.092;2022-07-06T03:19:47;1.27;;;0.50;;
20476;SDS011;10397;50.948;11.092;2022-07-06T03:22:18;1.10;;;0.50;;
20476;SDS011;10397;50.948;11.092;2022-07-06T03:24:50;1.92;;;0.53;;
20476;SDS011;10397;50.948;11.092;2022-07-06T03:27:21;1.72;;;0.60;;
20476;SDS011;10397;50.948;11.092;2022-07-06T03:29:53;1.65;;;0.50;;
20476;SDS011;10397;50.948;11.092;2022-07-06T03:32:24;4.85;;;0.57;;
20476;SDS011;10397;50.948;11.092;2022-07-06T03:34:56;1.27;;;0.60;;
20476;SDS011;10397;50.948;11.092;2022-07-06T03:37:27;2.80;;;0.60;;
20476;SDS011;10397;50.948;11.092;2022-07-06T03:39:59;3.50;;;0.50;;
20476;SDS011;10397;50.948;11.092;2022-07-06T03:42:30;1.75;;;0.70;;
20476;SDS011;10397;50.948;11.092;2022-07-06T03:45:02;1.62;;;0.70;;
20476;SDS011;10397;50.948;11.092;2022-07-06T03:47:33;2.22;;;0.60;;
20476;SDS011;10397;50.948;11.092;2022-07-06T03:50:05;2.45;;;0.68;;
20476;SDS011;10397;50.948;11.092;2022-07-06T03:52:36;1.67;;;0.60;;
20476;SDS011;10397;50.948;11.092;2022-07-06T03:55:10;2.33;;;0.60;;
20476;SDS011;10397;50.948;11.092;2022-07-06T03:57:41;4.23;;;0.80;;
20476;SDS011;10397;50.948;11.092;2022-07-06T04:00:12;2.97;;;0.43;;
20476;SDS011;10397;50.948;11.092;2022-07-06T04:02:42;2.08;;;0.70;;
20476;SDS011;10397;50.948;11.092;2022-07-06T04:05:14;1.67;;;0.60;;
20476;SDS011;10397;50.948;11.092;2022-07-06T04:07:46;0.78;;;0.50;;
20476;SDS011;10397;50.948;11.092;2022-07-06T04:10:17;1.92;;;0.50;;
20476;SDS011;10397;50.948;11.092;2022-07-06T04:12:48;1.87;;;0.53;;
20476;SDS011;10397;50.948;11.092;2022-07-06T04:15:20;1.65;;;0.50;;
20476;SDS011;10397;50.948;11.092;2022-07-06T04:17:51;1.42;;;0.60;;
20476;SDS011;10397;50.948;11.092;2022-07-06T04:20:23;2.87;;;0.70;;
20476;SDS011;10397;50.948;11.092;2022-07-06T04:22:53;2.43;;;0.80;;
20476;SDS011;10397;50.948;11.092;2022-07-06T04:25:25;1.87;;;0.62;;
20476;SDS011;10397;50.948;11.092;2022-07-06T04:27:56;1.75;;;0.55;;
20476;SDS011;10397;50.948;11.092;2022-07-06T04:30:28;5.75;;;0.60;;
20476;SDS011;10397;50.948;11.092;2022-07-06T04:32:59;0.78;;;0.55;;
20476;SDS011;10397;50.948;11.092;2022-07-06T04:35:31;3.87;;;0.70;;
20476;SDS011;10397;50.948;11.092;2022-07-06T04:38:03;2.37;;;0.80;;
20476;SDS011;10397;50.948;11.092;2022-07-06T04:40:34;1.20;;;0.55;;
20476;SDS011;10397;50.948;11.092;2022-07-06T04:43:05;1.82;;;0.55;;
20476;SDS011;10397;50.948;11.092;2022-07-06T04:45:36;1.85;;;0.70;;
20476;SDS011;10397;50.948;11.092;2022-07-06T04:48:08;1.90;;;0.65;;
20476;SDS011;10397;50.948;11.092;2022-07-06T04:50:39;1.95;;;0.57;;
20476;SDS011;10397;50.948;11.092;2022-07-06T04:53:10;1.00;;;0.55;;
20476;SDS011;10397;50.948;11.092;2022-07-06T04:55:42;2.72;;;0.70;;
20476;SDS011;10397;50.948;11.092;2022-07-06T04:58:14;4.17;;;0.60;;
20476;SDS011;10397;50.948;11.092;2022-07-06T05:00:45;4.92;;;0.90;;
20476;SDS011;10397;50.948;11.092;2022-07-06T05:03:17;2.27;;;0.70;;
20476;SDS011;10397;50.948;11.092;2022-07-06T05:05:49;5.03;;;0.80;;
20476;SDS011;10397;50.948;11.092;2022-07-06T05:08:20;4.70;;;0.90;;
20476;SDS011;10397;50.948;11.092;2022-07-06T05:10:51;4.60;;;0.57;;
20476;SDS011;10397;50.948;11.092;2022-07-06T05:13:23;1.30;;;0.50;;
20476;SDS011;10397;50.948;11.092;2022-07-06T05:15:54;1.90;;;0.72;;
20476;SDS011;10397;50.948;11.092;2022-07-06T05:18:26;3.45;;;0.80;;
20476;SDS011;10397;50.948;11.092;2022-07-06T05:20:58;3.65;;;0.82;;
20476;SDS011;10397;50.948;11.092;2022-07-06T05:23:29;1.65;;;0.62;;
20476;SDS011;10397;50.948;11.092;2022-07-06T05:26:00;1.77;;;0.60;;
20476;SDS011;10397;50.948;11.092;2022-07-06T05:28:32;4.85;;;0.70;;
20476;SDS011;10397;50.948;11.092;2022-07-06T05:31:04;2.77;;;0.60;;
20476;SDS011;10397;50.948;11.092;2022-07-06T05:33:35;1.45;;;0.75;;
20476;SDS011;10397;50.948;11.092;2022-07-06T05:36:06;3.70;;;0.60;;
20476;SDS011;10397;50.948;11.092;2022-07-06T05:38:38;5.22;;;0.75;;
20476;SDS011;10397;50.948;11.092;2022-07-06T05:41:08;2.70;;;0.63;;
20476;SDS011;10397;50.948;11.092;2022-07-06T05:43:40;4.58;;;0.70;;
20476;SDS011;10397;50.948;11.092;2022-07-06T05:46:11;2.83;;;0.68;;
20476;SDS011;10397;50.948;11.092;2022-07-06T05:48:42;3.45;;;0.80;;
20476;SDS011;10397;50.948;11.092;2022-07-06T05:51:32;1.23;;;0.60;;
20476;SDS011;10397;50.948;11.092;2022-07-06T05:54:03;3.45;;;0.88;;
20476;SDS011;10397;50.948;11.092;2022-07-06T05:56:34;3.40;;;1.02;;
20476;SDS011;10397;50.948;11.092;2022-07-06T05:59:06;2.15;;;0.80;;
20476;SDS011;10397;50.948;11.092;2022-07-06T06:01:37;3.20;;;0.90;;
20476;SDS011;10397;50.948;11.092;2022-07-06T06:04:09;5.65;;;1.00;;
20476;SDS011;10397;50.948;11.092;2022-07-06T06:06:40;10.08;;;1.10;;
20476;SDS011;10397;50.948;11.092;2022-07-06T06:09:12;3.90;;;1.00;;
20476;SDS011;10397;50.948;11.092;2022-07-06T06:11:44;1.80;;;0.75;;
20476;SDS011;10397;50.948;11.092;2022-07-06T06:14:16;3.90;;;0.90;;
20476;SDS011;10397;50.948;11.092;2022-07-06T06:16:47;7.03;;;1.30;;
20476;SDS011;10397;50.948;11.092;2022-07-06T06:19:19;6.00;;;0.93;;
20476;SDS011;10397;50.948;11.092;2022-07-06T06:21:51;3.62;;;1.02;;
20476;SDS011;10397;50.948;11.092;2022-07-06T06:24:22;4.45;;;0.78;;
20476;SDS011;10397;50.948;11.092;2022-07-06T06:26:53;6.62;;;1.00;;
20476;SDS011;10397;50.948;11.092;2022-07-06T06:29:25;3.70;;;1.00;;
20476;SDS011;10397;50.948;11.092;2022-07-06T06:31:57;3.87;;;0.90;;
20476;SDS011;10397;50.948;11.092;2022-07-06T06:34:28;2.22;;;0.70;;
20476;SDS011;10397;50.948;11.092;2022-07-06T06:37:00;3.83;;;0.70;;
20476;SDS011;10397;50.948;11.092;2022-07-06T06:39:31;8.05;;;1.05;;
20476;SDS011;10397;50.948;11.092;2022-07-06T06:42:03;4.97;;;1.07;;
20476;SDS011;10397;50.948;11.092;2022-07-06T06:44:34;2.30;;;0.95;;
20476;SDS011;10397;50.948;11.092;2022-07-06T06:47:05;7.03;;;1.10;;
20476;SDS011;10397;50.948;11.092;2022-07-06T06:49:37;3.50;;;0.98;;
20476;SDS011;10397;50.948;11.092;2022-07-06T06:52:08;3.00;;;0.80;;
20476;SDS011;10397;50.948;11.092;2022-07-06T06:54:40;3.83;;;0.70;;
20476;SDS011;10397;50.948;11.092;2022-07-06T06:57:12;2.62;;;0.80;;
20476;SDS011;10397;50.948;11.092;2022-07-06T06:59:43;3.37;;;1.17;;
20476;SDS011;10397;50.948;11.092;2022-07-06T07:02:15;3.02;;;0.68;;
20476;SDS011;10397;50.948;11.092;2022-07-06T07:04:46;3.83;;;0.70;;
20476;SDS011;10397;50.948;11.092;2022-07-06T07:07:18;5.45;;;1.27;;
20476;SDS011;10397;50.948;11.092;2022-07-06T07:09:50;3.33;;;1.00;;
20476;SDS011;10397;50.948;11.092;2022-07-06T07:12:21;7.15;;;0.90;;
20476;SDS011;10397;50.948;11.092;2022-07-06T07:14:53;3.30;;;0.80;;
20476;SDS011;10397;50.948;11.092;2022-07-06T07:17:25;5.55;;;0.88;;
20476;SDS011;10397;50.948;11.092;2022-07-06T07:19:56;2.95;;;0.90;;
20476;SDS011;10397;50.948;11.092;2022-07-06T07:22:28;4.25;;;0.80;;
20476;SDS011;10397;50.948;11.092;2022-07-06T07:25:00;2.83;;;0.90;;
20476;SDS011;10397;50.948;11.092;2022-07-06T07:27:30;4.33;;;1.00;;
20476;SDS011;10397;50.948;11.092;2022-07-06T07:30:02;5.47;;;0.80;;
20476;SDS011;10397;50.948;11.092;2022-07-06T07:32:33;4.97;;;1.05;;
20476;SDS011;10397;50.948;11.092;2022-07-06T07:35:04;1.90;;;0.90;;
20476;SDS011;10397;50.948;11.092;2022-07-06T07:37:35;3.92;;;0.82;;
20476;SDS011;10397;50.948;11.092;2022-07-06T07:40:07;5.28;;;1.10;;
20476;SDS011;10397;50.948;11.092;2022-07-06T07:42:37;5.23;;;0.90;;
20476;SDS011;10397;50.948;11.092;2022-07-06T07:45:09;3.67;;;1.20;;
20476;SDS011;10397;50.948;11.092;2022-07-06T07:47:40;5.75;;;1.00;;
20476;SDS011;10397;50.948;11.092;2022-07-06T07:50:11;3.57;;;1.00;;
20476;SDS011;10397;50.948;11.092;2022-07-06T07:52:42;3.98;;;1.40;;
20476;SDS011;10397;50.948;11.092;2022-07-06T07:55:13;7.20;;;1.10;;
20476;SDS011;10397;50.948;11.092;2022-07-06T07:57:44;4.67;;;1.20;;
20476;SDS011;10397;50.948;11.092;2022-07-06T08:00:16;5.70;;;0.90;;
20476;SDS011;10397;50.948;11.092;2022-07-06T08:02:47;2.73;;;1.13;;
20476;SDS011;10397;50.948;11.092;2022-07-06T08:05:18;3.90;;;1.17;;
20476;SDS011;10397;50.948;11.092;2022-07-06T08:07:50;6.53;;;1.25;;
20476;SDS011;10397;50.948;11.092;2022-07-06T08:10:21;3.83;;;1.10;;
20476;SDS011;10397;50.948;11.092;2022-07-06T08:12:53;3.25;;;1.17;;
20476;SDS011;10397;50.948;11.092;2022-07-06T08:15:25;5.97;;;1.00;;
20476;SDS011;10397;50.948;11.092;2022-07-06T08:17:56;6.30;;;1.60;;
20476;SDS011;10397;50.948;11.092;2022-07-06T08:20:27;5.25;;;1.20;;
20476;SDS011;10397;50.948;11.092;2022-07-06T08:22:59;4.58;;;0.80;;
20476;SDS011;10397;50.948;11.092;2022-07-06T08:25:31;4.58;;;0.90;;
20476;SDS011;10397;50.948;11.092;2022-07-06T08:28:01;3.40;;;1.00;;
20476;SDS011;10397;50.948;11.092;2022-07-06T08:30:32;7.37;;;1.12;;
20476;SDS011;10397;50.948;11.092;2022-07-06T08:33:03;3.40;;;1.22;;
20476;SDS011;10397;50.948;11.092;2022-07-06T08:35:35;5.25;;;0.98;;
20476;SDS011;10397;50.948;11.092;2022-07-06T08:38:06;3.45;;;0.80;;
20476;SDS011;10397;50.948;11.092;2022-07-06T08:40:38;3.52;;;0.70;;
20476;SDS011;10397;50.948;11.092;2022-07-06T08:43:08;5.70;;;1.00;;
20476;SDS011;10397;50.948;11.092;2022-07-06T08:45:40;7.30;;;0.55;;
20476;SDS011;10397;50.948;11.092;2022-07-06T08:48:10;4.67;;;0.70;;
20476;SDS011;10397;50.948;11.092;2022-07-06T08:50:41;5.80;;;0.70;;
20476;SDS011;10397;50.948;11.092;2022-07-06T08:53:12;4.25;;;0.80;;
20476;SDS011;10397;50.948;11.092;2022-07-06T08:55:44;2.08;;;0.57;;
20476;SDS011;10397;50.948;11.092;2022-07-06T08:58:15;2.75;;;0.62;;
20476;SDS011;10397;50.948;11.092;2022-07-06T09:00:46;1.57;;;0.60;;
20476;SDS011;10397;50.948;11.092;2022-07-06T09:03:17;3.92;;;0.70;;
20476;SDS011;10397;50.948;11.092;2022-07-06T09:05:50;1.90;;;0.80;;
20476;SDS011;10397;50.948;11.092;2022-07-06T09:08:20;3.27;;;0.82;;
20476;SDS011;10397;50.948;11.092;2022-07-06T09:10:51;3.75;;;1.10;;
20476;SDS011;10397;50.948;11.092;2022-07-06T09:13:23;3.62;;;0.80;;
20476;SDS011;10397;50.948;11.092;2022-07-06T09:15:55;4.80;;;0.60;;
20476;SDS011;10397;50.948;11.092;2022-07-06T09:18:26;4.30;;;0.80;;
20476;SDS011;10397;50.948;11.092;2022-07-06T09:20:58;1.45;;;0.60;;
20476;SDS011;10397;50.948;11.092;2022-07-06T09:23:30;3.33;;;0.98;;
20476;SDS011;10397;50.948;11.092;2022-07-06T09:26:01;2.52;;;0.70;;
20476;SDS011;10397;50.948;11.092;2022-07-06T09:28:41;2.70;;;0.60;;
20476;SDS011;10397;50.948;11.092;2022-07-06T09:31:10;2.10;;;0.60;;
20476;SDS011;10397;50.948;11.092;2022-07-06T09:33:54;4.58;;;0.70;;
20476;SDS011;10397;50.948;11.092;2022-07-06T09:36:40;4.30;;;0.53;;
20476;SDS011;10397;50.948;11.092;2022-07-06T09:41:46;1.70;;;0.50;;
20476;SDS011;10397;50.948;11.092;2022-07-06T09:44:21;1.47;;;0.60;;
20476;SDS011;10397;50.948;11.092;2022-07-06T09:46:51;3.17;;;0.50;;
20476;SDS011;10397;50.948;11.092;2022-07-06T09:49:22;3.30;;;0.40;;
20476;SDS011;10397;50.948;11.092;2022-07-06T09:51:53;1.10;;;0.50;;
20476;SDS011;10397;50.948;11.092;2022-07-06T09:54:25;2.47;;;0.70;;
20476;SDS011;10397;50.948;11.092;2022-07-06T09:56:57;3.30;;;0.53;;
20476;SDS011;10397;50.948;11.092;2022-07-06T09:59:28;3.93;;;0.50;;
20476;SDS011;10397;50.948;11.092;2022-07-06T10:02:02;3.90;;;0.60;;
20476;SDS011;10397;50.948;11.092;2022-07-06T10:04:32;4.07;;;0.50;;
20476;SDS011;10397;50.948;11.092;2022-07-06T10:07:03;2.50;;;0.60;;
20476;SDS011;10397;50.948;11.092;2022-07-06T10:09:34;1.50;;;0.62;;
20476;SDS011;10397;50.948;11.092;2022-07-06T10:12:05;4.08;;;0.72;;
20476;SDS011;10397;50.948;11.092;2022-07-06T10:14:36;3.12;;;0.60;;
20476;SDS011;10397;50.948;11.092;2022-07-06T10:17:08;2.65;;;0.70;;
20476;SDS011;10397;50.948;11.092;2022-07-06T10:19:39;2.87;;;0.60;;
20476;SDS011;10397;50.948;11.092;2022-07-06T10:22:11;2.40;;;0.95;;
20476;SDS011;10397;50.948;11.092;2022-07-06T10:24:42;3.20;;;0.80;;
20476;SDS011;10397;50.948;11.092;2022-07-06T10:27:13;4.37;;;0.65;;
20476;SDS011;10397;50.948;11.092;2022-07-06T10:29:44;2.10;;;0.60;;
20476;SDS011;10397;50.948;11.092;2022-07-06T10:32:19;1.27;;;0.50;;
20476;SDS011;10397;50.948;11.092;2022-07-06T10:34:47;7.17;;;0.60;;
20476;SDS011;10397;50.948;11.092;2022-07-06T10:37:25;1.05;;;0.30;;
20476;SDS011;10397;50.948;11.092;2022-07-06T10:39:55;1.77;;;0.40;;
20476;SDS011;10397;50.948;11.092;2022-07-06T10:42:47;3.07;;;0.50;;
20476;SDS011;10397;50.948;11.092;2022-07-06T10:45:49;3.73;;;0.30;;
20476;SDS011;10397;50.948;11.092;2022-07-06T10:50:52;2.10;;;0.30;;
20476;SDS011;10397;50.948;11.092;2022-07-06T10:53:28;3.80;;;0.50;;
20476;SDS011;10397;50.948;11.092;2022-07-06T10:55:55;2.07;;;0.40;;
20476;SDS011;10397;50.948;11.092;2022-07-06T11:01:18;2.27;;;0.43;;
20476;SDS011;10397;50.948;11.092;2022-07-06T11:06:30;1.47;;;0.30;;
20476;SDS011;10397;50.948;11.092;2022-07-06T11:09:00;1.25;;;0.40;;
20476;SDS011;10397;50.948;11.092;2022-07-06T11:14:16;2.77;;;0.47;;
20476;SDS011;10397;50.948;11.092;2022-07-06T11:19:20;3.90;;;0.50;;
20476;SDS011;10397;50.948;11.092;2022-07-06T11:21:50;4.57;;;0.40;;
20476;SDS011;10397;50.948;11.092;2022-07-06T11:24:21;5.05;;;0.53;;
20476;SDS011;10397;50.948;11.092;2022-07-06T11:26:52;2.90;;;0.30;;
20476;SDS011;10397;50.948;11.092;2022-07-06T11:29:23;2.10;;;0.60;;
20476;SDS011;10397;50.948;11.092;2022-07-06T11:31:54;1.12;;;0.40;;
20476;SDS011;10397;50.948;11.092;2022-07-06T11:34:29;2.03;;;0.50;;
20476;SDS011;10397;50.948;11.092;2022-07-06T11:36:58;3.55;;;0.57;;
20476;SDS011;10397;50.948;11.092;2022-07-06T11:39:28;3.70;;;0.50;;
20476;SDS011;10397;50.948;11.092;2022-07-06T11:42:02;2.30;;;0.40;;
20476;SDS011;10397;50.948;11.092;2022-07-06T11:44:36;5.25;;;1.00;;
20476;SDS011;10397;50.948;11.092;2022-07-06T11:47:03;1.63;;;0.40;;
20476;SDS011;10397;50.948;11.092;2022-07-06T11:49:34;3.42;;;0.65;;
20476;SDS011;10397;50.948;11.092;2022-07-06T11:52:11;2.83;;;0.50;;
20476;SDS011;10397;50.948;11.092;2022-07-06T11:54:38;2.00;;;0.50;;
20476;SDS011;10397;50.948;11.092;2022-07-06T11:57:09;3.35;;;0.65;;
20476;SDS011;10397;50.948;11.092;2022-07-06T11:59:41;3.13;;;0.40;;
20476;SDS011;10397;50.948;11.092;2022-07-06T12:02:10;1.20;;;0.53;;
20476;SDS011;10397;50.948;11.092;2022-07-06T12:04:42;1.90;;;0.50;;
20476;SDS011;10397;50.948;11.092;2022-07-06T12:07:12;2.05;;;0.50;;
20476;SDS011;10397;50.948;11.092;2022-07-06T12:09:42;3.57;;;0.50;;
20476;SDS011;10397;50.948;11.092;2022-07-06T12:12:13;2.33;;;0.30;;
20476;SDS011;10397;50.948;11.092;2022-07-06T12:14:43;2.33;;;0.47;;
20476;SDS011;10397;50.948;11.092;2022-07-06T12:17:15;4.53;;;0.50;;
20476;SDS011;10397;50.948;11.092;2022-07-06T12:19:46;1.77;;;0.40;;
20476;SDS011;10397;50.948;11.092;2022-07-06T12:22:23;2.95;;;0.68;;
20476;SDS011;10397;50.948;11.092;2022-07-06T12:24:48;1.32;;;0.40;;
20476;SDS011;10397;50.948;11.092;2022-07-06T12:27:20;2.77;;;0.60;;
20476;SDS011;10397;50.948;11.092;2022-07-06T12:29:51;4.97;;;0.50;;
20476;SDS011;10397;50.948;11.092;2022-07-06T12:32:23;2.35;;;0.50;;
20476;SDS011;10397;50.948;11.092;2022-07-06T12:35:04;2.95;;;0.57;;
20476;SDS011;10397;50.948;11.092;2022-07-06T12:37:33;3.87;;;0.50;;
20476;SDS011;10397;50.948;11.092;2022-07-06T12:40:14;3.08;;;0.60;;
20476;SDS011;10397;50.948;11.092;2022-07-06T12:42:47;1.70;;;0.40;;
20476;SDS011;10397;50.948;11.092;2022-07-06T12:45:15;3.08;;;0.50;;
20476;SDS011;10397;50.948;11.092;2022-07-06T12:48:20;0.57;;;0.30;;
20476;SDS011;10397;50.948;11.092;2022-07-06T12:50:35;1.13;;;0.30;;
20476;SDS011;10397;50.948;11.092;2022-07-06T12:53:05;2.90;;;0.40;;
20476;SDS011;10397;50.948;11.092;2022-07-06T12:55:36;2.92;;;0.37;;
20476;SDS011;10397;50.948;11.092;2022-07-06T12:58:07;3.70;;;0.40;;
20476;SDS011;10397;50.948;11.092;2022-07-06T13:00:44;0.93;;;0.25;;
20476;SDS011;10397;50.948;11.092;2022-07-06T13:03:15;1.40;;;0.30;;
20476;SDS011;10397;50.948;11.092;2022-07-06T13:05:49;2.65;;;0.33;;
20476;SDS011;10397;50.948;11.092;2022-07-06T13:08:20;2.63;;;0.30;;
20476;SDS011;10397;50.948;11.092;2022-07-06T13:10:51;2.05;;;0.30;;
20476;SDS011;10397;50.948;11.092;2022-07-06T13:13:23;1.02;;;0.28;;
20476;SDS011;10397;50.948;11.092;2022-07-06T13:15:54;0.85;;;0.30;;
20476;SDS011;10397;50.948;11.092;2022-07-06T13:18:25;2.37;;;0.30;;
20476;SDS011;10397;50.948;11.092;2022-07-06T13:20:57;1.27;;;0.30;;
20476;SDS011;10397;50.948;11.092;2022-07-06T13:23:28;9.85;;;0.50;;
20476;SDS011;10397;50.948;11.092;2022-07-06T13:26:00;1.22;;;0.40;;
20476;SDS011;10397;50.948;11.092;2022-07-06T13:28:32;1.25;;;0.40;;
20476;SDS011;10397;50.948;11.092;2022-07-06T13:31:03;1.10;;;0.50;;
20476;SDS011;10397;50.948;11.092;2022-07-06T13:33:34;3.83;;;0.45;;
20476;SDS011;10397;50.948;11.092;2022-07-06T13:36:06;1.35;;;0.40;;
20476;SDS011;10397;50.948;11.092;2022-07-06T13:38:36;2.03;;;0.27;;
20476;SDS011;10397;50.948;11.092;2022-07-06T13:41:07;2.15;;;0.20;;
20476;SDS011;10397;50.948;11.092;2022-07-06T13:43:38;0.68;;;0.30;;
20476;SDS011;10397;50.948;11.092;2022-07-06T13:46:10;0.95;;;0.40;;
20476;SDS011;10397;50.948;11.092;2022-07-06T13:48:42;5.03;;;0.45;;
20476;SDS011;10397;50.948;11.092;2022-07-06T13:51:12;4.37;;;0.80;;
20476;SDS011;10397;50.948;11.092;2022-07-06T13:53:43;2.17;;;0.50;;
20476;SDS011;10397;50.948;11.092;2022-07-06T13:56:14;1.40;;;0.40;;
20476;SDS011;10397;50.948;11.092;2022-07-06T13:58:45;1.95;;;0.30;;
20476;SDS011;10397;50.948;11.092;2022-07-06T14:01:16;4.87;;;0.57;;
20476;SDS011;10397;50.948;11.092;2022-07-06T14:03:47;2.87;;;0.30;;
20476;SDS011;10397;50.948;11.092;2022-07-06T14:06:19;2.10;;;0.40;;
20476;SDS011;10397;50.948;11.092;2022-07-06T14:08:49;3.30;;;0.40;;
20476;SDS011;10397;50.948;11.092;2022-07-06T14:11:21;3.02;;;0.60;;
20476;SDS011;10397;50.948;11.092;2022-07-06T14:13:52;1.87;;;0.40;;
20476;SDS011;10397;50.948;11.092;2022-07-06T14:16:24;0.95;;;0.30;;
20476;SDS011;10397;50.948;11.092;2022-07-06T14:18:55;3.17;;;0.50;;
20476;SDS011;10397;50.948;11.092;2022-07-06T14:21:26;6.03;;;0.53;;
20476;SDS011;10397;50.948;11.092;2022-07-06T14:23:58;1.60;;;0.30;;
20476;SDS011;10397;50.948;11.092;2022-07-06T14:26:29;5.40;;;0.50;;
20476;SDS011;10397;50.948;11.092;2022-07-06T14:28:59;1.63;;;0.40;;
20476;SDS011;10397;50.948;11.092;2022-07-06T14:31:31;3.85;;;0.30;;
20476;SDS011;10397;50.948;11.092;2022-07-06T14:34:03;6.22;;;0.40;;
20476;SDS011;10397;50.948;11.092;2022-07-06T14:36:35;1.17;;;0.35;;
20476;SDS011;10397;50.948;11.092;2022-07-06T14:39:05;2.40;;;0.40;;
20476;SDS011;10397;50.948;11.092;2022-07-06T14:41:36;2.87;;;0.45;;
20476;SDS011;10397;50.948;11.092;2022-07-06T14:44:07;2.77;;;0.30;;
20476;SDS011;10397;50.948;11.092;2022-07-06T14:46:39;1.87;;;0.40;;
20476;SDS011;10397;50.948;11.092;2022-07-06T14:49:10;2.22;;;0.40;;
20476;SDS011;10397;50.948;11.092;2022-07-06T14:51:41;2.55;;;0.37;;
20476;SDS011;10397;50.948;11.092;2022-07-06T14:54:13;3.80;;;0.40;;
20476;SDS011;10397;50.948;11.092;2022-07-06T14:56:44;2.17;;;0.50;;
20476;SDS011;10397;50.948;11.092;2022-07-06T14:59:15;3.17;;;0.30;;
20476;SDS011;10397;50.948;11.092;2022-07-06T15:01:46;8.08;;;0.50;;
20476;SDS011;10397;50.948;11.092;2022-07-06T15:04:18;4.12;;;0.70;;
20476;SDS011;10397;50.948;11.092;2022-07-06T15:06:49;1.37;;;0.30;;
20476;SDS011;10397;50.948;11.092;2022-07-06T15:09:21;5.35;;;0.45;;
20476;SDS011;10397;50.948;11.092;2022-07-06T15:11:52;6.67;;;0.50;;
20476;SDS011;10397;50.948;11.092;2022-07-06T15:14:23;1.85;;;0.40;;